sensor_id;sensor_type;location;lat;lon;timestamp;P1;durP1;ratioP1;P2;durP2;ratioP2
23543;SDS011;11950;51.230;4.012;2023-06-05T00:01:52;3.03;;;1.90;;
23543;SDS011;11950;51.230;4.012;2023-06-05T00:04:18;2.95;;;2.15;;
23543;SDS011;11950;51.230;4.012;2023-06-05T00:06:44;4.03;;;2.20;;
23543;SDS011;11950;51.230;4.012;2023-06-05T00:09:11;5.57;;;2.10;;
23543;SDS011;11950;51.230;4.012;2023-06-05T00:11:39;5.13;;;2.17;;
23543;SDS011;11950;51.230;4.012;2023-06-05T00:14:05;5.55;;;2.40;;
23543;SDS011;11950;51.230;4.012;2023-06-05T00:16:34;3.15;;;2.20;;
23543;SDS011;11950;51.230;4.012;2023-06-05T00:19:01;3.53;;;2.08;;
23543;SDS011;11950;51.230;4.012;2023-06-05T00:21:28;3.55;;;2.30;;
23543;SDS011;11950;51.230;4.012;2023-06-05T00:23:55;4.47;;;2.15;;
23543;SDS011;11950;51.230;4.012;2023-06-05T00:26:21;3.72;;;2.30;;
23543;SDS011;11950;51.230;4.012;2023-06-05T00:28:49;4.00;;;2.15;;
23543;SDS011;11950;51.230;4.012;2023-06-05T00:31:15;6.05;;;2.75;;
23543;SDS011;11950;51.230;4.012;2023-06-05T00:33:44;3.20;;;2.50;;
23543;SDS011;11950;51.230;4.012;2023-06-05T00:36:10;3.15;;;2.05;;
23543;SDS011;11950;51.230;4.012;2023-06-05T00:38:37;2.90;;;1.98;;
23543;SDS011;11950;51.230;4.012;2023-06-05T00:41:03;3.55;;;2.10;;
23543;SDS011;11950;51.230;4.012;2023-06-05T00:43:29;4.13;;;2.40;;
23543;SDS011;11950;51.230;4.012;2023-06-05T00:45:59;2.95;;;2.13;;
23543;SDS011;11950;51.230;4.012;2023-06-05T00:48:32;5.72;;;2.55;;
23543;SDS011;11950;51.230;4.012;2023-06-05T00:50:59;5.32;;;2.72;;
23543;SDS011;11950;51.230;4.012;2023-06-05T00:53:26;5.65;;;1.90;;
23543;SDS011;11950;51.230;4.012;2023-06-05T00:55:54;5.20;;;2.40;;
23543;SDS011;11950;51.230;4.012;2023-06-05T00:58:22;4.13;;;2.75;;
23543;SDS011;11950;51.230;4.012;2023-06-05T01:00:49;3.83;;;2.40;;
23543;SDS011;11950;51.230;4.012;2023-06-05T01:03:16;4.90;;;2.05;;
23543;SDS011;11950;51.230;4.012;2023-06-05T01:05:43;5.75;;;2.63;;
23543;SDS011;11950;51.230;4.012;2023-06-05T01:08:09;3.88;;;2.20;;
23543;SDS011;11950;51.230;4.012;2023-06-05T01:10:38;3.88;;;2.67;;
23543;SDS011;11950;51.230;4.012;2023-06-05T01:13:14;7.28;;;3.08;;
23543;SDS011;11950;51.230;4.012;2023-06-05T01:15:49;4.18;;;2.30;;
23543;SDS011;11950;51.230;4.012;2023-06-05T01:18:18;5.38;;;2.42;;
23543;SDS011;11950;51.230;4.012;2023-06-05T01:20:44;6.35;;;3.08;;
23543;SDS011;11950;51.230;4.012;2023-06-05T01:23:11;3.30;;;2.47;;
23543;SDS011;11950;51.230;4.012;2023-06-05T01:25:37;4.25;;;2.30;;
23543;SDS011;11950;51.230;4.012;2023-06-05T01:28:23;5.80;;;2.30;;
23543;SDS011;11950;51.230;4.012;2023-06-05T01:30:55;4.28;;;2.45;;
23543;SDS011;11950;51.230;4.012;2023-06-05T01:33:38;3.13;;;2.42;;
23543;SDS011;11950;51.230;4.012;2023-06-05T01:36:10;5.05;;;2.65;;
23543;SDS011;11950;51.230;4.012;2023-06-05T01:38:39;8.13;;;2.58;;
23543;SDS011;11950;51.230;4.012;2023-06-05T01:41:07;4.85;;;2.72;;
23543;SDS011;11950;51.230;4.012;2023-06-05T01:43:36;5.13;;;3.10;;
23543;SDS011;11950;51.230;4.012;2023-06-05T01:46:04;7.53;;;3.20;;
23543;SDS011;11950;51.230;4.012;2023-06-05T01:48:34;5.50;;;3.05;;
23543;SDS011;11950;51.230;4.012;2023-06-05T01:51:01;5.03;;;2.90;;
23543;SDS011;11950;51.230;4.012;2023-06-05T01:53:29;3.20;;;2.70;;
23543;SDS011;11950;51.230;4.012;2023-06-05T01:55:55;6.47;;;3.10;;
23543;SDS011;11950;51.230;4.012;2023-06-05T01:58:26;6.07;;;2.97;;
23543;SDS011;11950;51.230;4.012;2023-06-05T02:00:53;4.20;;;2.92;;
23543;SDS011;11950;51.230;4.012;2023-06-05T02:03:20;4.47;;;2.40;;
23543;SDS011;11950;51.230;4.012;2023-06-05T02:05:46;7.65;;;3.25;;
23543;SDS011;11950;51.230;4.012;2023-06-05T02:08:13;3.45;;;3.15;;
23543;SDS011;11950;51.230;4.012;2023-06-05T02:10:45;5.03;;;3.38;;
23543;SDS011;11950;51.230;4.012;2023-06-05T02:13:12;5.93;;;3.35;;
23543;SDS011;11950;51.230;4.012;2023-06-05T02:15:41;5.90;;;2.75;;
23543;SDS011;11950;51.230;4.012;2023-06-05T02:18:09;4.53;;;2.92;;
23543;SDS011;11950;51.230;4.012;2023-06-05T02:20:36;4.22;;;2.88;;
23543;SDS011;11950;51.230;4.012;2023-06-05T02:23:02;4.07;;;3.08;;
23543;SDS011;11950;51.230;4.012;2023-06-05T02:25:30;4.80;;;3.58;;
23543;SDS011;11950;51.230;4.012;2023-06-05T02:27:57;3.60;;;2.70;;
23543;SDS011;11950;51.230;4.012;2023-06-05T02:30:23;3.45;;;2.85;;
23543;SDS011;11950;51.230;4.012;2023-06-05T02:32:50;5.40;;;3.00;;
23543;SDS011;11950;51.230;4.012;2023-06-05T02:35:26;4.15;;;3.17;;
23543;SDS011;11950;51.230;4.012;2023-06-05T02:37:53;6.43;;;3.70;;
23543;SDS011;11950;51.230;4.012;2023-06-05T02:40:21;3.63;;;3.17;;
23543;SDS011;11950;51.230;4.012;2023-06-05T02:42:49;8.18;;;3.38;;
23543;SDS011;11950;51.230;4.012;2023-06-05T02:45:16;5.68;;;3.33;;
23543;SDS011;11950;51.230;4.012;2023-06-05T02:47:43;5.00;;;3.58;;
23543;SDS011;11950;51.230;4.012;2023-06-05T02:50:09;7.32;;;3.70;;
23543;SDS011;11950;51.230;4.012;2023-06-05T02:52:40;6.25;;;3.10;;
23543;SDS011;11950;51.230;4.012;2023-06-05T02:55:14;5.60;;;3.20;;
23543;SDS011;11950;51.230;4.012;2023-06-05T02:57:44;5.28;;;3.38;;
23543;SDS011;11950;51.230;4.012;2023-06-05T03:00:15;4.70;;;3.75;;
23543;SDS011;11950;51.230;4.012;2023-06-05T03:02:44;5.60;;;3.70;;
23543;SDS011;11950;51.230;4.012;2023-06-05T03:05:14;4.93;;;3.63;;
23543;SDS011;11950;51.230;4.012;2023-06-05T03:07:41;6.60;;;3.80;;
23543;SDS011;11950;51.230;4.012;2023-06-05T03:10:08;5.55;;;3.92;;
23543;SDS011;11950;51.230;4.012;2023-06-05T03:12:35;6.57;;;3.53;;
23543;SDS011;11950;51.230;4.012;2023-06-05T03:15:01;5.68;;;3.47;;
23543;SDS011;11950;51.230;4.012;2023-06-05T03:17:30;3.83;;;3.38;;
23543;SDS011;11950;51.230;4.012;2023-06-05T03:19:57;11.88;;;4.75;;
23543;SDS011;11950;51.230;4.012;2023-06-05T03:22:23;7.28;;;3.38;;
23543;SDS011;11950;51.230;4.012;2023-06-05T03:24:51;6.13;;;3.63;;
23543;SDS011;11950;51.230;4.012;2023-06-05T03:27:17;6.78;;;3.70;;
23543;SDS011;11950;51.230;4.012;2023-06-05T03:29:44;6.57;;;3.72;;
23543;SDS011;11950;51.230;4.012;2023-06-05T03:32:10;6.40;;;4.28;;
23543;SDS011;11950;51.230;4.012;2023-06-05T03:34:36;10.82;;;5.43;;
23543;SDS011;11950;51.230;4.012;2023-06-05T03:37:05;7.13;;;4.57;;
23543;SDS011;11950;51.230;4.012;2023-06-05T03:39:31;4.55;;;3.13;;
23543;SDS011;11950;51.230;4.012;2023-06-05T03:41:59;4.95;;;3.47;;
23543;SDS011;11950;51.230;4.012;2023-06-05T03:44:29;6.07;;;3.97;;
23543;SDS011;11950;51.230;4.012;2023-06-05T03:46:56;6.22;;;4.07;;
23543;SDS011;11950;51.230;4.012;2023-06-05T03:49:24;5.85;;;4.22;;
23543;SDS011;11950;51.230;4.012;2023-06-05T03:51:51;5.28;;;4.13;;
23543;SDS011;11950;51.230;4.012;2023-06-05T03:54:18;7.43;;;4.32;;
23543;SDS011;11950;51.230;4.012;2023-06-05T03:56:44;4.80;;;3.80;;
23543;SDS011;11950;51.230;4.012;2023-06-05T03:59:15;7.95;;;4.70;;
23543;SDS011;11950;51.230;4.012;2023-06-05T04:04:14;7.60;;;4.30;;
23543;SDS011;11950;51.230;4.012;2023-06-05T04:06:40;7.40;;;4.35;;
23543;SDS011;11950;51.230;4.012;2023-06-05T04:09:08;8.55;;;4.95;;
23543;SDS011;11950;51.230;4.012;2023-06-05T04:11:42;6.22;;;5.00;;
23543;SDS011;11950;51.230;4.012;2023-06-05T04:14:10;7.63;;;4.97;;
23543;SDS011;11950;51.230;4.012;2023-06-05T04:16:37;7.60;;;4.88;;
23543;SDS011;11950;51.230;4.012;2023-06-05T04:19:05;8.90;;;5.20;;
23543;SDS011;11950;51.230;4.012;2023-06-05T04:21:37;5.13;;;4.40;;
23543;SDS011;11950;51.230;4.012;2023-06-05T04:24:04;5.82;;;4.65;;
23543;SDS011;11950;51.230;4.012;2023-06-05T04:26:34;8.88;;;5.55;;
23543;SDS011;11950;51.230;4.012;2023-06-05T04:29:00;8.13;;;5.00;;
23543;SDS011;11950;51.230;4.012;2023-06-05T04:31:35;7.90;;;4.70;;
23543;SDS011;11950;51.230;4.012;2023-06-05T04:34:05;6.78;;;4.78;;
23543;SDS011;11950;51.230;4.012;2023-06-05T04:36:32;6.60;;;5.20;;
23543;SDS011;11950;51.230;4.012;2023-06-05T04:39:00;6.53;;;4.85;;
23543;SDS011;11950;51.230;4.012;2023-06-05T04:41:37;8.57;;;5.10;;
23543;SDS011;11950;51.230;4.012;2023-06-05T04:44:11;8.45;;;5.22;;
23543;SDS011;11950;51.230;4.012;2023-06-05T04:46:39;7.20;;;5.07;;
23543;SDS011;11950;51.230;4.012;2023-06-05T04:49:12;6.50;;;5.10;;
23543;SDS011;11950;51.230;4.012;2023-06-05T04:54:07;8.13;;;4.53;;
23543;SDS011;11950;51.230;4.012;2023-06-05T04:56:33;7.50;;;4.95;;
23543;SDS011;11950;51.230;4.012;2023-06-05T04:59:01;9.30;;;5.20;;
23543;SDS011;11950;51.230;4.012;2023-06-05T05:01:29;9.02;;;5.57;;
23543;SDS011;11950;51.230;4.012;2023-06-05T05:03:56;8.35;;;5.38;;
23543;SDS011;11950;51.230;4.012;2023-06-05T05:06:23;9.63;;;5.80;;
23543;SDS011;11950;51.230;4.012;2023-06-05T05:08:50;8.07;;;6.45;;
23543;SDS011;11950;51.230;4.012;2023-06-05T05:11:17;7.25;;;5.32;;
23543;SDS011;11950;51.230;4.012;2023-06-05T05:13:45;7.50;;;5.22;;
23543;SDS011;11950;51.230;4.012;2023-06-05T05:16:12;9.18;;;5.55;;
23543;SDS011;11950;51.230;4.012;2023-06-05T05:18:39;6.88;;;5.20;;
23543;SDS011;11950;51.230;4.012;2023-06-05T05:21:07;8.43;;;5.75;;
23543;SDS011;11950;51.230;4.012;2023-06-05T05:23:36;6.90;;;5.53;;
23543;SDS011;11950;51.230;4.012;2023-06-05T05:26:02;8.50;;;5.47;;
23543;SDS011;11950;51.230;4.012;2023-06-05T05:28:29;10.50;;;5.60;;
23543;SDS011;11950;51.230;4.012;2023-06-05T05:30:56;6.68;;;5.15;;
23543;SDS011;11950;51.230;4.012;2023-06-05T05:33:23;10.15;;;6.20;;
23543;SDS011;11950;51.230;4.012;2023-06-05T05:35:49;9.07;;;5.93;;
23543;SDS011;11950;51.230;4.012;2023-06-05T05:38:17;6.40;;;5.38;;
23543;SDS011;11950;51.230;4.012;2023-06-05T05:40:43;8.70;;;5.45;;
23543;SDS011;11950;51.230;4.012;2023-06-05T05:43:10;5.22;;;4.68;;
23543;SDS011;11950;51.230;4.012;2023-06-05T05:45:36;7.03;;;5.13;;
23543;SDS011;11950;51.230;4.012;2023-06-05T05:48:04;7.82;;;5.65;;
23543;SDS011;11950;51.230;4.012;2023-06-05T05:50:31;8.27;;;5.00;;
23543;SDS011;11950;51.230;4.012;2023-06-05T05:52:57;7.07;;;5.07;;
23543;SDS011;11950;51.230;4.012;2023-06-05T05:55:24;7.53;;;4.95;;
23543;SDS011;11950;51.230;4.012;2023-06-05T05:57:51;6.97;;;4.85;;
23543;SDS011;11950;51.230;4.012;2023-06-05T06:00:18;6.32;;;4.75;;
23543;SDS011;11950;51.230;4.012;2023-06-05T06:02:44;8.90;;;5.20;;
23543;SDS011;11950;51.230;4.012;2023-06-05T06:05:11;7.88;;;5.45;;
23543;SDS011;11950;51.230;4.012;2023-06-05T06:07:38;8.32;;;5.80;;
23543;SDS011;11950;51.230;4.012;2023-06-05T06:10:06;7.53;;;5.47;;
23543;SDS011;11950;51.230;4.012;2023-06-05T06:12:33;7.13;;;5.55;;
23543;SDS011;11950;51.230;4.012;2023-06-05T06:15:00;8.35;;;5.13;;
23543;SDS011;11950;51.230;4.012;2023-06-05T06:17:26;7.63;;;5.30;;
23543;SDS011;11950;51.230;4.012;2023-06-05T06:19:52;8.77;;;5.95;;
23543;SDS011;11950;51.230;4.012;2023-06-05T06:22:19;6.75;;;5.20;;
23543;SDS011;11950;51.230;4.012;2023-06-05T06:24:46;8.27;;;5.32;;
23543;SDS011;11950;51.230;4.012;2023-06-05T06:27:13;7.55;;;5.60;;
23543;SDS011;11950;51.230;4.012;2023-06-05T06:29:49;7.65;;;6.07;;
23543;SDS011;11950;51.230;4.012;2023-06-05T06:32:18;5.95;;;5.35;;
23543;SDS011;11950;51.230;4.012;2023-06-05T06:34:45;7.63;;;4.25;;
23543;SDS011;11950;51.230;4.012;2023-06-05T06:37:14;8.52;;;5.85;;
23543;SDS011;11950;51.230;4.012;2023-06-05T06:39:41;7.65;;;5.38;;
23543;SDS011;11950;51.230;4.012;2023-06-05T06:42:08;5.95;;;5.00;;
23543;SDS011;11950;51.230;4.012;2023-06-05T06:44:36;8.02;;;5.57;;
23543;SDS011;11950;51.230;4.012;2023-06-05T06:47:02;6.55;;;5.55;;
23543;SDS011;11950;51.230;4.012;2023-06-05T06:49:29;7.35;;;5.25;;
23543;SDS011;11950;51.230;4.012;2023-06-05T06:51:55;8.52;;;5.55;;
23543;SDS011;11950;51.230;4.012;2023-06-05T06:54:22;7.43;;;5.07;;
23543;SDS011;11950;51.230;4.012;2023-06-05T06:56:48;7.40;;;5.20;;
23543;SDS011;11950;51.230;4.012;2023-06-05T06:59:15;6.53;;;4.60;;
23543;SDS011;11950;51.230;4.012;2023-06-05T07:01:42;7.85;;;5.72;;
23543;SDS011;11950;51.230;4.012;2023-06-05T07:04:11;10.90;;;6.45;;
23543;SDS011;11950;51.230;4.012;2023-06-05T07:06:43;7.90;;;5.05;;
23543;SDS011;11950;51.230;4.012;2023-06-05T07:09:10;9.48;;;6.22;;
23543;SDS011;11950;51.230;4.012;2023-06-05T07:11:36;7.13;;;5.25;;
23543;SDS011;11950;51.230;4.012;2023-06-05T07:14:02;6.78;;;5.50;;
23543;SDS011;11950;51.230;4.012;2023-06-05T07:16:28;7.95;;;5.88;;
23543;SDS011;11950;51.230;4.012;2023-06-05T07:18:55;8.88;;;5.68;;
23543;SDS011;11950;51.230;4.012;2023-06-05T07:21:21;8.73;;;5.60;;
23543;SDS011;11950;51.230;4.012;2023-06-05T07:23:48;7.22;;;5.68;;
23543;SDS011;11950;51.230;4.012;2023-06-05T07:26:17;7.13;;;5.60;;
23543;SDS011;11950;51.230;4.012;2023-06-05T07:28:43;7.85;;;5.90;;
23543;SDS011;11950;51.230;4.012;2023-06-05T07:31:13;6.03;;;5.20;;
23543;SDS011;11950;51.230;4.012;2023-06-05T07:33:40;8.93;;;5.88;;
23543;SDS011;11950;51.230;4.012;2023-06-05T07:36:07;11.02;;;6.00;;
23543;SDS011;11950;51.230;4.012;2023-06-05T07:38:33;8.73;;;5.72;;
23543;SDS011;11950;51.230;4.012;2023-06-05T07:41:00;8.23;;;5.13;;
23543;SDS011;11950;51.230;4.012;2023-06-05T07:43:27;10.02;;;5.53;;
23543;SDS011;11950;51.230;4.012;2023-06-05T07:45:54;7.35;;;5.75;;
23543;SDS011;11950;51.230;4.012;2023-06-05T07:48:20;7.75;;;5.57;;
23543;SDS011;11950;51.230;4.012;2023-06-05T07:50:46;8.45;;;5.18;;
23543;SDS011;11950;51.230;4.012;2023-06-05T07:53:12;7.63;;;5.15;;
23543;SDS011;11950;51.230;4.012;2023-06-05T07:55:39;7.68;;;6.07;;
23543;SDS011;11950;51.230;4.012;2023-06-05T07:58:05;6.25;;;5.05;;
23543;SDS011;11950;51.230;4.012;2023-06-05T08:00:31;7.00;;;5.03;;
23543;SDS011;11950;51.230;4.012;2023-06-05T08:02:59;7.97;;;5.57;;
23543;SDS011;11950;51.230;4.012;2023-06-05T08:05:25;8.77;;;5.90;;
23543;SDS011;11950;51.230;4.012;2023-06-05T08:07:52;9.93;;;5.40;;
23543;SDS011;11950;51.230;4.012;2023-06-05T08:10:18;10.45;;;5.88;;
23543;SDS011;11950;51.230;4.012;2023-06-05T08:12:45;8.85;;;5.60;;
23543;SDS011;11950;51.230;4.012;2023-06-05T08:15:11;9.02;;;5.43;;
23543;SDS011;11950;51.230;4.012;2023-06-05T08:17:38;7.30;;;5.60;;
23543;SDS011;11950;51.230;4.012;2023-06-05T08:20:04;9.23;;;5.45;;
23543;SDS011;11950;51.230;4.012;2023-06-05T08:22:31;6.40;;;5.00;;
23543;SDS011;11950;51.230;4.012;2023-06-05T08:24:57;9.65;;;5.07;;
23543;SDS011;11950;51.230;4.012;2023-06-05T08:27:26;8.02;;;4.35;;
23543;SDS011;11950;51.230;4.012;2023-06-05T08:29:54;7.80;;;5.07;;
23543;SDS011;11950;51.230;4.012;2023-06-05T08:32:20;8.32;;;4.75;;
23543;SDS011;11950;51.230;4.012;2023-06-05T08:34:46;8.55;;;5.10;;
23543;SDS011;11950;51.230;4.012;2023-06-05T08:37:12;7.63;;;5.32;;
23543;SDS011;11950;51.230;4.012;2023-06-05T08:39:39;5.35;;;4.60;;
23543;SDS011;11950;51.230;4.012;2023-06-05T08:42:05;7.18;;;4.32;;
23543;SDS011;11950;51.230;4.012;2023-06-05T08:44:33;7.72;;;4.45;;
23543;SDS011;11950;51.230;4.012;2023-06-05T08:47:00;6.28;;;4.30;;
23543;SDS011;11950;51.230;4.012;2023-06-05T08:49:28;9.50;;;4.28;;
23543;SDS011;11950;51.230;4.012;2023-06-05T08:52:01;6.60;;;4.90;;
23543;SDS011;11950;51.230;4.012;2023-06-05T08:54:33;6.55;;;4.95;;
23543;SDS011;11950;51.230;4.012;2023-06-05T08:57:04;7.03;;;4.53;;
23543;SDS011;11950;51.230;4.012;2023-06-05T08:59:33;5.28;;;4.45;;
23543;SDS011;11950;51.230;4.012;2023-06-05T09:02:00;6.40;;;4.47;;
23543;SDS011;11950;51.230;4.012;2023-06-05T09:04:26;9.13;;;5.40;;
23543;SDS011;11950;51.230;4.012;2023-06-05T09:06:56;6.68;;;4.70;;
23543;SDS011;11950;51.230;4.012;2023-06-05T09:09:23;16.17;;;5.68;;
23543;SDS011;11950;51.230;4.012;2023-06-05T09:12:03;7.55;;;4.28;;
23543;SDS011;11950;51.230;4.012;2023-06-05T09:14:31;8.63;;;4.38;;
23543;SDS011;11950;51.230;4.012;2023-06-05T09:17:01;12.68;;;6.00;;
23543;SDS011;11950;51.230;4.012;2023-06-05T09:19:38;8.05;;;4.50;;
23543;SDS011;11950;51.230;4.012;2023-06-05T09:22:09;8.93;;;5.47;;
23543;SDS011;11950;51.230;4.012;2023-06-05T09:24:36;9.95;;;4.43;;
23543;SDS011;11950;51.230;4.012;2023-06-05T09:27:04;7.28;;;4.13;;
23543;SDS011;11950;51.230;4.012;2023-06-05T09:29:33;7.82;;;4.97;;
23543;SDS011;11950;51.230;4.012;2023-06-05T09:32:04;9.55;;;5.30;;
23543;SDS011;11950;51.230;4.012;2023-06-05T09:34:33;9.73;;;4.53;;
23543;SDS011;11950;51.230;4.012;2023-06-05T09:37:02;5.05;;;4.57;;
23543;SDS011;11950;51.230;4.012;2023-06-05T09:39:31;6.03;;;4.78;;
23543;SDS011;11950;51.230;4.012;2023-06-05T09:41:58;4.93;;;4.22;;
23543;SDS011;11950;51.230;4.012;2023-06-05T09:44:25;6.03;;;3.90;;
23543;SDS011;11950;51.230;4.012;2023-06-05T09:46:57;7.90;;;4.68;;
23543;SDS011;11950;51.230;4.012;2023-06-05T09:49:31;5.43;;;3.78;;
23543;SDS011;11950;51.230;4.012;2023-06-05T09:52:11;8.73;;;5.03;;
23543;SDS011;11950;51.230;4.012;2023-06-05T09:54:39;6.47;;;5.10;;
23543;SDS011;11950;51.230;4.012;2023-06-05T09:57:08;6.40;;;4.25;;
23543;SDS011;11950;51.230;4.012;2023-06-05T09:59:40;9.63;;;5.25;;
23543;SDS011;11950;51.230;4.012;2023-06-05T10:02:13;8.95;;;4.07;;
23543;SDS011;11950;51.230;4.012;2023-06-05T10:04:50;8.55;;;4.60;;
23543;SDS011;11950;51.230;4.012;2023-06-05T10:07:21;8.23;;;5.75;;
23543;SDS011;11950;51.230;4.012;2023-06-05T10:09:49;8.20;;;5.85;;
23543;SDS011;11950;51.230;4.012;2023-06-05T10:12:16;7.80;;;4.78;;
23543;SDS011;11950;51.230;4.012;2023-06-05T10:14:42;7.32;;;5.50;;
23543;SDS011;11950;51.230;4.012;2023-06-05T10:17:12;12.57;;;5.28;;
23543;SDS011;11950;51.230;4.012;2023-06-05T10:19:42;8.30;;;5.65;;
23543;SDS011;11950;51.230;4.012;2023-06-05T10:22:10;6.55;;;4.80;;
23543;SDS011;11950;51.230;4.012;2023-06-05T10:24:58;7.70;;;4.80;;
23543;SDS011;11950;51.230;4.012;2023-06-05T10:40:53;6.05;;;5.30;;
23543;SDS011;11950;51.230;4.012;2023-06-05T10:46:00;8.48;;;5.82;;
23543;SDS011;11950;51.230;4.012;2023-06-05T10:49:05;5.82;;;5.22;;
23543;SDS011;11950;51.230;4.012;2023-06-05T10:54:03;7.88;;;4.78;;
23543;SDS011;11950;51.230;4.012;2023-06-05T10:59:18;6.25;;;5.63;;
23543;SDS011;11950;51.230;4.012;2023-06-05T11:17:36;7.20;;;4.10;;
23543;SDS011;11950;51.230;4.012;2023-06-05T11:27:48;5.85;;;4.50;;
23543;SDS011;11950;51.230;4.012;2023-06-05T11:30:20;7.38;;;3.75;;
23543;SDS011;11950;51.230;4.012;2023-06-05T11:32:52;7.28;;;4.57;;
23543;SDS011;11950;51.230;4.012;2023-06-05T11:35:26;5.43;;;4.45;;
23543;SDS011;11950;51.230;4.012;2023-06-05T11:40:55;5.03;;;4.45;;
23543;SDS011;11950;51.230;4.012;2023-06-05T11:43:21;5.78;;;4.00;;
23543;SDS011;11950;51.230;4.012;2023-06-05T11:45:52;6.93;;;5.18;;
23543;SDS011;11950;51.230;4.012;2023-06-05T11:48:23;5.43;;;3.67;;
23543;SDS011;11950;51.230;4.012;2023-06-05T11:50:51;4.53;;;3.75;;
23543;SDS011;11950;51.230;4.012;2023-06-05T11:53:29;5.13;;;3.60;;
23543;SDS011;11950;51.230;4.012;2023-06-05T11:55:56;4.40;;;3.00;;
23543;SDS011;11950;51.230;4.012;2023-06-05T11:58:29;6.95;;;3.90;;
23543;SDS011;11950;51.230;4.012;2023-06-05T12:01:12;7.13;;;4.47;;
23543;SDS011;11950;51.230;4.012;2023-06-05T12:06:32;5.65;;;4.07;;
23543;SDS011;11950;51.230;4.012;2023-06-05T12:09:10;5.45;;;3.47;;
23543;SDS011;11950;51.230;4.012;2023-06-05T12:11:39;4.18;;;3.53;;
23543;SDS011;11950;51.230;4.012;2023-06-05T12:14:05;5.57;;;3.10;;
23543;SDS011;11950;51.230;4.012;2023-06-05T12:16:33;5.32;;;3.45;;
23543;SDS011;11950;51.230;4.012;2023-06-05T12:19:01;3.83;;;2.75;;
23543;SDS011;11950;51.230;4.012;2023-06-05T12:21:29;4.88;;;2.90;;
23543;SDS011;11950;51.230;4.012;2023-06-05T12:24:02;3.40;;;3.05;;
23543;SDS011;11950;51.230;4.012;2023-06-05T12:26:29;5.07;;;3.72;;
23543;SDS011;11950;51.230;4.012;2023-06-05T12:29:12;4.68;;;3.40;;
23543;SDS011;11950;51.230;4.012;2023-06-05T12:31:39;4.68;;;3.35;;
23543;SDS011;11950;51.230;4.012;2023-06-05T12:34:05;5.68;;;2.80;;
23543;SDS011;11950;51.230;4.012;2023-06-05T12:36:37;3.85;;;2.47;;
23543;SDS011;11950;51.230;4.012;2023-06-05T12:39:05;5.38;;;3.20;;
23543;SDS011;11950;51.230;4.012;2023-06-05T12:41:32;3.67;;;3.38;;
23543;SDS011;11950;51.230;4.012;2023-06-05T12:44:04;5.35;;;3.63;;
23543;SDS011;11950;51.230;4.012;2023-06-05T12:46:32;6.47;;;2.87;;
23543;SDS011;11950;51.230;4.012;2023-06-05T12:48:59;3.30;;;2.17;;
23543;SDS011;11950;51.230;4.012;2023-06-05T12:51:29;2.97;;;2.50;;
23543;SDS011;11950;51.230;4.012;2023-06-05T12:53:55;6.25;;;3.50;;
23543;SDS011;11950;51.230;4.012;2023-06-05T12:56:25;7.35;;;3.70;;
23543;SDS011;11950;51.230;4.012;2023-06-05T12:58:56;3.23;;;2.93;;
23543;SDS011;11950;51.230;4.012;2023-06-05T13:01:24;5.10;;;3.13;;
23543;SDS011;11950;51.230;4.012;2023-06-05T13:03:51;6.53;;;2.65;;
23543;SDS011;11950;51.230;4.012;2023-06-05T13:06:18;8.02;;;3.08;;
23543;SDS011;11950;51.230;4.012;2023-06-05T13:08:44;7.32;;;2.67;;
23543;SDS011;11950;51.230;4.012;2023-06-05T13:11:12;3.63;;;2.95;;
23543;SDS011;11950;51.230;4.012;2023-06-05T13:13:39;5.57;;;2.80;;
23543;SDS011;11950;51.230;4.012;2023-06-05T13:16:05;3.40;;;2.75;;
23543;SDS011;11950;51.230;4.012;2023-06-05T13:18:33;5.90;;;2.83;;
23543;SDS011;11950;51.230;4.012;2023-06-05T13:21:02;3.92;;;2.70;;
23543;SDS011;11950;51.230;4.012;2023-06-05T13:23:29;5.70;;;2.90;;
23543;SDS011;11950;51.230;4.012;2023-06-05T13:25:56;4.10;;;2.90;;
23543;SDS011;11950;51.230;4.012;2023-06-05T13:28:22;4.68;;;2.58;;
23543;SDS011;11950;51.230;4.012;2023-06-05T13:30:48;5.68;;;3.20;;
23543;SDS011;11950;51.230;4.012;2023-06-05T13:33:14;3.42;;;2.53;;
23543;SDS011;11950;51.230;4.012;2023-06-05T13:35:41;4.10;;;2.58;;
23543;SDS011;11950;51.230;4.012;2023-06-05T13:38:07;4.35;;;2.90;;
23543;SDS011;11950;51.230;4.012;2023-06-05T13:40:33;4.97;;;2.58;;
23543;SDS011;11950;51.230;4.012;2023-06-05T13:42:59;6.07;;;3.47;;
23543;SDS011;11950;51.230;4.012;2023-06-05T13:45:25;3.40;;;2.53;;
23543;SDS011;11950;51.230;4.012;2023-06-05T13:47:52;6.57;;;2.65;;
23543;SDS011;11950;51.230;4.012;2023-06-05T13:50:18;3.55;;;2.92;;
23543;SDS011;11950;51.230;4.012;2023-06-05T13:52:45;4.57;;;3.90;;
23543;SDS011;11950;51.230;4.012;2023-06-05T13:55:12;5.30;;;3.10;;
23543;SDS011;11950;51.230;4.012;2023-06-05T13:57:38;7.38;;;3.28;;
23543;SDS011;11950;51.230;4.012;2023-06-05T14:00:05;4.32;;;2.88;;
23543;SDS011;11950;51.230;4.012;2023-06-05T14:02:32;4.28;;;3.30;;
23543;SDS011;11950;51.230;4.012;2023-06-05T14:04:59;4.75;;;3.50;;
23543;SDS011;11950;51.230;4.012;2023-06-05T14:07:25;7.35;;;3.20;;
23543;SDS011;11950;51.230;4.012;2023-06-05T14:09:52;7.40;;;3.72;;
23543;SDS011;11950;51.230;4.012;2023-06-05T14:12:18;6.38;;;3.08;;
23543;SDS011;11950;51.230;4.012;2023-06-05T14:14:45;4.25;;;3.55;;
23543;SDS011;11950;51.230;4.012;2023-06-05T14:17:11;7.57;;;3.75;;
23543;SDS011;11950;51.230;4.012;2023-06-05T14:19:37;7.55;;;3.60;;
23543;SDS011;11950;51.230;4.012;2023-06-05T14:22:03;6.35;;;3.92;;
23543;SDS011;11950;51.230;4.012;2023-06-05T14:24:31;4.90;;;4.13;;
23543;SDS011;11950;51.230;4.012;2023-06-05T14:26:57;8.63;;;3.40;;
23543;SDS011;11950;51.230;4.012;2023-06-05T14:29:24;7.43;;;3.55;;
23543;SDS011;11950;51.230;4.012;2023-06-05T14:31:50;4.95;;;3.28;;
23543;SDS011;11950;51.230;4.012;2023-06-05T14:34:16;5.65;;;3.80;;
23543;SDS011;11950;51.230;4.012;2023-06-05T14:36:43;7.50;;;3.47;;
23543;SDS011;11950;51.230;4.012;2023-06-05T14:39:16;7.50;;;4.28;;
23543;SDS011;11950;51.230;4.012;2023-06-05T14:41:43;4.57;;;3.45;;
23543;SDS011;11950;51.230;4.012;2023-06-05T14:44:09;9.55;;;4.13;;
23543;SDS011;11950;51.230;4.012;2023-06-05T14:46:35;6.15;;;4.03;;
23543;SDS011;11950;51.230;4.012;2023-06-05T14:49:02;6.22;;;3.58;;
23543;SDS011;11950;51.230;4.012;2023-06-05T14:51:28;7.88;;;3.47;;
23543;SDS011;11950;51.230;4.012;2023-06-05T14:53:54;8.88;;;4.47;;
23543;SDS011;11950;51.230;4.012;2023-06-05T14:56:20;7.28;;;3.70;;
23543;SDS011;11950;51.230;4.012;2023-06-05T14:58:48;3.38;;;2.58;;
23543;SDS011;11950;51.230;4.012;2023-06-05T15:01:14;8.93;;;3.80;;
23543;SDS011;11950;51.230;4.012;2023-06-05T15:03:40;10.23;;;3.88;;
23543;SDS011;11950;51.230;4.012;2023-06-05T15:06:06;5.72;;;3.53;;
23543;SDS011;11950;51.230;4.012;2023-06-05T15:08:33;6.32;;;3.13;;
23543;SDS011;11950;51.230;4.012;2023-06-05T15:10:59;5.32;;;3.50;;
23543;SDS011;11950;51.230;4.012;2023-06-05T15:13:25;6.22;;;3.58;;
23543;SDS011;11950;51.230;4.012;2023-06-05T15:15:51;7.07;;;3.47;;
23543;SDS011;11950;51.230;4.012;2023-06-05T15:18:17;7.55;;;3.88;;
23543;SDS011;11950;51.230;4.012;2023-06-05T15:20:44;8.63;;;3.45;;
23543;SDS011;11950;51.230;4.012;2023-06-05T15:23:10;6.85;;;3.47;;
23543;SDS011;11950;51.230;4.012;2023-06-05T15:25:36;7.78;;;3.03;;
23543;SDS011;11950;51.230;4.012;2023-06-05T15:28:04;9.38;;;3.90;;
23543;SDS011;11950;51.230;4.012;2023-06-05T15:30:30;7.80;;;3.60;;
23543;SDS011;11950;51.230;4.012;2023-06-05T15:32:56;6.82;;;3.05;;
23543;SDS011;11950;51.230;4.012;2023-06-05T15:35:23;5.97;;;2.80;;
23543;SDS011;11950;51.230;4.012;2023-06-05T15:37:51;10.02;;;3.67;;
23543;SDS011;11950;51.230;4.012;2023-06-05T15:40:17;7.40;;;3.03;;
23543;SDS011;11950;51.230;4.012;2023-06-05T15:42:43;6.55;;;2.78;;
23543;SDS011;11950;51.230;4.012;2023-06-05T15:45:13;6.63;;;3.38;;
23543;SDS011;11950;51.230;4.012;2023-06-05T15:47:43;7.22;;;3.15;;
23543;SDS011;11950;51.230;4.012;2023-06-05T15:50:09;3.38;;;2.47;;